Time;durP1;ratioP1;P1;durP2;ratioP2;P2;SDS_P1;SDS_P2;PMS_P1;PMS_P2;Temp;Humidity;BMP_temperature;BMP_pressure;BME280_temperature;BME280_humidity;BME280_pressure;Samples;Min_cycle;Max_cycle;Signal;HPM_P1;HPM_P2
2023/03/05 00:01:26;;;;;;;51.75;25.55;;;2.90;99.90;;;1.71;100.00;97636.50;4914552;29;20472;-79
2023/03/05 00:03:55;;;;;;;68.13;31.10;;;2.90;99.90;;;1.66;100.00;97637.06;4914850;29;20936;-79
2023/03/05 00:06:22;;;;;;;54.00;25.50;;;2.90;99.90;;;1.67;100.00;97635.25;4914005;29;20633;-79
2023/03/05 00:08:50;;;;;;;48.33;25.27;;;2.90;99.90;;;1.68;100.00;97627.25;4914902;29;20484;-79
2023/03/05 00:11:16;;;;;;;50.58;24.60;;;2.90;99.90;;;1.69;100.00;97633.28;4914506;29;20413;-79
2023/03/05 00:13:42;;;;;;;49.53;24.60;;;2.90;99.90;;;1.69;100.00;97631.47;4914448;29;20934;-79
2023/03/05 00:16:12;;;;;;;46.05;23.17;;;2.90;99.90;;;1.72;100.00;97628.50;4914685;29;20892;-79
2023/03/05 00:18:40;;;;;;;45.30;22.90;;;2.90;99.90;;;1.74;100.00;97634.31;4914647;29;21006;-79
2023/03/05 00:21:18;;;;;;;48.22;23.60;;;3.00;99.90;;;1.79;100.00;97625.94;4914637;29;20537;-79
2023/03/05 00:23:44;;;;;;;46.90;23.73;;;3.00;99.90;;;1.80;100.00;97630.16;4913341;29;20444;-79
2023/03/05 00:26:10;;;;;;;52.70;25.15;;;3.00;99.90;;;1.80;100.00;97622.34;4914530;29;20428;-79
2023/03/05 00:28:36;;;;;;;48.67;23.58;;;3.00;99.90;;;1.84;100.00;97618.34;4913279;29;20417;-79
2023/03/05 00:31:02;;;;;;;47.65;23.08;;;3.00;99.90;;;1.82;100.00;97613.31;4914406;29;20424;-79
2023/03/05 00:33:28;;;;;;;46.67;22.83;;;3.00;99.90;;;1.84;100.00;97621.75;4914093;29;20402;-79
2023/03/05 00:35:56;;;;;;;42.15;20.65;;;3.10;99.90;;;1.87;100.00;97618.78;4914419;29;20779;-79
2023/03/05 00:38:21;;;;;;;43.78;22.58;;;3.10;99.90;;;1.85;100.00;97609.50;4914366;29;20815;-79
2023/03/05 00:40:50;;;;;;;39.20;20.10;;;3.00;99.90;;;1.86;100.00;97617.16;4914255;29;20418;-79
2023/03/05 00:43:16;;;;;;;45.63;22.50;;;3.10;99.90;;;1.87;100.00;97610.94;4911391;29;20472;-79
2023/03/05 00:45:41;;;;;;;48.28;22.42;;;3.10;99.90;;;1.87;100.00;97610.94;4914002;29;20896;-79
2023/03/05 00:48:09;;;;;;;45.90;20.98;;;3.10;99.90;;;1.90;100.00;97610.56;4931237;29;20523;-80
2023/03/05 00:50:35;;;;;;;44.47;20.70;;;3.10;99.90;;;1.91;100.00;97604.34;4911637;29;20908;-79
2023/03/05 00:53:02;;;;;;;47.17;21.35;;;3.10;99.90;;;1.92;100.00;97613.78;4913653;29;20424;-79
2023/03/05 00:55:28;;;;;;;44.65;21.27;;;3.10;99.90;;;1.93;100.00;97609.38;4912829;29;20421;-79
2023/03/05 00:57:54;;;;;;;44.75;20.27;;;3.10;99.90;;;1.97;100.00;97599.34;4914079;29;20417;-79
2023/03/05 01:00:20;;;;;;;50.20;21.93;;;3.10;99.90;;;1.98;100.00;97595.72;4914006;29;20405;-79
2023/03/05 01:02:46;;;;;;;46.25;20.60;;;3.10;99.90;;;2.00;100.00;97596.34;4913557;29;20794;-79
2023/03/05 01:05:14;;;;;;;41.55;20.08;;;3.20;99.90;;;1.99;100.00;97597.34;4913965;29;20891;-79
2023/03/05 01:07:40;;;;;;;42.28;19.67;;;3.20;99.90;;;1.98;100.00;97596.53;4913755;29;20441;-79
2023/03/05 01:10:09;;;;;;;53.00;21.92;;;3.20;99.90;;;1.95;100.00;97591.72;4913871;29;20478;-80
2023/03/05 01:12:35;;;;;;;51.87;21.93;;;3.10;99.90;;;1.93;100.00;97597.13;4910784;29;21017;-79
2023/03/05 01:15:02;;;;;;;46.22;19.95;;;3.10;99.90;;;1.92;100.00;97582.47;4913614;29;20529;-80
2023/03/05 01:17:28;;;;;;;43.30;19.77;;;3.10;99.90;;;1.94;100.00;97590.09;4913311;29;20406;-79
2023/03/05 01:19:53;;;;;;;46.10;20.42;;;3.10;99.90;;;1.95;100.00;97589.91;4911214;29;20483;-79
2023/03/05 01:22:19;;;;;;;43.97;20.00;;;3.10;99.90;;;1.95;100.00;97579.44;4913257;29;20452;-79
2023/03/05 01:24:45;;;;;;;41.83;19.10;;;3.10;99.90;;;1.94;100.00;97582.28;4913683;29;20496;-79
2023/03/05 01:27:13;;;;;;;40.80;18.98;;;3.10;99.90;;;1.95;100.00;97576.06;4913499;29;20429;-79
2023/03/05 01:29:38;;;;;;;41.88;18.92;;;3.10;99.90;;;1.95;100.00;97579.44;4913550;29;20899;-79
2023/03/05 01:32:05;;;;;;;41.03;18.90;;;3.10;99.90;;;1.95;100.00;97574.22;4913244;29;20414;-80
2023/03/05 01:34:31;;;;;;;42.97;20.30;;;3.10;99.90;;;1.93;100.00;97572.81;4913623;29;20483;-79
2023/03/05 01:36:57;;;;;;;43.38;19.67;;;3.10;99.90;;;1.94;100.00;97572.66;4913703;29;20783;-79
2023/03/05 01:39:22;;;;;;;40.05;19.40;;;3.10;99.90;;;1.93;100.00;97562.38;4913584;29;20421;-79
2023/03/05 01:41:48;;;;;;;40.85;18.48;;;3.10;99.90;;;1.93;100.00;97560.59;4913031;29;20459;-79
2023/03/05 01:44:22;;;;;;;42.97;20.27;;;3.10;99.90;;;1.96;100.00;97562.00;4913624;29;20417;-79
2023/03/05 01:46:48;;;;;;;40.83;18.55;;;3.10;99.90;;;1.95;100.00;97561.19;4913475;29;20839;-80
2023/03/05 01:49:21;;;;;;;44.10;20.30;;;3.10;99.90;;;1.95;100.00;97553.34;4910949;29;20809;-79
2023/03/05 01:51:57;;;;;;;52.15;22.42;;;3.20;99.90;;;1.96;100.00;97554.16;4913101;29;20922;-79
2023/03/05 01:54:28;;;;;;;50.15;22.02;;;3.10;99.90;;;1.93;100.00;97546.72;4912045;29;20503;-79
2023/03/05 01:56:58;;;;;;;46.03;21.30;;;3.10;99.90;;;1.90;100.00;97544.50;4913450;29;20420;-79
2023/03/05 01:59:26;;;;;;;49.20;21.35;;;3.10;99.90;;;1.88;100.00;97542.06;4913377;29;20413;-79
2023/03/05 02:01:56;;;;;;;43.78;20.40;;;3.10;99.90;;;1.88;100.00;97536.84;4912992;29;20858;-79
2023/03/05 02:04:30;;;;;;;46.22;20.77;;;3.10;99.90;;;1.91;100.00;97535.66;4913280;29;20426;-79
2023/03/05 02:06:57;;;;;;;43.95;20.70;;;3.10;99.90;;;1.90;100.00;97534.03;4911001;29;20432;-79
2023/03/05 02:09:25;;;;;;;51.60;21.05;;;3.10;99.90;;;1.91;100.00;97528.63;4913227;29;20411;-79
2023/03/05 02:11:51;;;;;;;48.17;21.45;;;3.10;99.90;;;1.93;100.00;97529.25;4912756;29;20939;-79
2023/03/05 02:14:19;;;;;;;48.23;20.93;;;3.10;99.90;;;1.92;100.00;97525.03;4913353;29;20497;-79
2023/03/05 02:16:46;;;;;;;47.47;21.70;;;3.20;99.90;;;1.93;100.00;97518.81;4913331;29;20464;-79
2023/03/05 02:19:12;;;;;;;44.72;21.60;;;3.10;99.90;;;1.95;100.00;97513.41;4913208;29;20441;-79
2023/03/05 02:21:43;;;;;;;46.00;21.67;;;3.10;99.90;;;1.91;100.00;97512.97;4912813;29;20413;-79
2023/03/05 02:24:11;;;;;;;43.53;20.48;;;3.10;99.90;;;1.90;100.00;97513.97;4912040;29;20421;-78
2023/03/05 02:26:38;;;;;;;41.30;18.88;;;3.10;99.90;;;1.95;100.00;97510.81;4910822;29;20454;-78
2023/03/05 02:29:07;;;;;;;53.55;22.08;;;3.10;99.90;;;1.89;100.00;97512.34;4914174;29;20495;-78
2023/03/05 02:31:33;;;;;;;48.35;20.83;;;3.10;99.90;;;1.91;100.00;97509.56;4916156;29;20468;-79
2023/03/05 02:33:59;;;;;;;46.35;20.33;;;3.10;99.90;;;1.88;100.00;97520.41;4916614;29;20417;-79
2023/03/05 02:36:25;;;;;;;46.35;20.88;;;3.10;99.90;;;1.86;100.00;97510.16;4916511;29;20427;-79
2023/03/05 02:38:55;;;;;;;42.20;19.05;;;3.10;99.90;;;1.87;100.00;97510.97;4916423;29;20500;-79
2023/03/05 02:41:22;;;;;;;48.97;21.02;;;3.10;99.90;;;1.87;100.00;97503.94;4916337;29;20413;-79
2023/03/05 02:43:48;;;;;;;47.20;20.38;;;3.10;99.90;;;1.89;100.00;97504.53;4929619;23;20930;-76
2023/03/05 02:46:13;;;;;;;46.25;19.55;;;3.10;99.90;;;1.90;100.00;97497.50;4915305;29;20460;-76
2023/03/05 02:48:39;;;;;;;48.87;21.17;;;3.10;99.90;;;1.92;100.00;97501.53;4915795;29;20930;-75
2023/03/05 02:51:06;;;;;;;48.90;20.63;;;3.10;99.90;;;1.92;100.00;97500.75;4916294;29;20424;-76
2023/03/05 02:53:33;;;;;;;55.08;23.02;;;3.10;99.90;;;1.91;100.00;97497.31;4914728;29;20795;-76
2023/03/05 02:56:00;;;;;;;47.45;20.58;;;3.10;99.90;;;1.94;100.00;97491.72;4916212;29;20417;-76
2023/03/05 02:58:26;;;;;;;46.45;19.80;;;3.10;99.90;;;1.94;100.00;97490.91;4916271;29;20820;-76
2023/03/05 03:00:52;;;;;;;55.13;22.17;;;3.10;99.90;;;2.05;100.00;97494.75;4916123;29;20838;-76
2023/03/05 03:03:18;;;;;;;44.20;19.98;;;3.20;99.90;;;2.00;100.00;97479.69;4915860;29;20413;-76
2023/03/05 03:05:44;;;;;;;48.53;19.63;;;3.20;99.90;;;1.99;100.00;97483.31;4916102;29;20409;-75
2023/03/05 03:08:10;;;;;;;51.72;20.25;;;3.20;99.90;;;1.94;100.00;97476.06;4916076;29;20484;-76
2023/03/05 03:10:36;;;;;;;44.35;18.73;;;3.20;99.90;;;1.93;100.00;97477.06;4916023;29;20488;-76
2023/03/05 03:13:03;;;;;;;48.72;20.38;;;3.10;99.90;;;1.96;100.00;97478.47;4915642;29;20413;-76
2023/03/05 03:15:29;;;;;;;50.78;19.33;;;3.10;99.90;;;1.93;100.00;97474.44;4915977;29;20421;-77
2023/03/05 03:17:55;;;;;;;44.25;18.65;;;3.10;99.90;;;1.92;100.00;97472.84;4915835;29;20428;-74
2023/03/05 03:20:22;;;;;;;52.58;21.40;;;3.10;99.90;;;1.91;100.00;97473.81;4915794;29;20423;-77
2023/03/05 03:22:48;;;;;;;51.47;21.13;;;3.00;99.90;;;1.89;100.00;97477.63;4915565;29;20409;-77
2023/03/05 03:25:15;;;;;;;48.92;19.73;;;3.10;99.90;;;1.87;100.00;97471.81;4915764;29;20420;-77
2023/03/05 03:27:41;;;;;;;48.42;19.30;;;3.10;99.90;;;1.88;100.00;97465.59;4915755;29;20421;-77
2023/03/05 03:30:11;;;;;;;46.28;19.13;;;3.10;99.90;;;1.88;100.00;97466.38;4915728;29;20804;-75
2023/03/05 03:32:37;;;;;;;46.72;19.02;;;3.10;99.90;;;1.87;100.00;97464.78;4903833;29;20437;-75
2023/03/05 03:35:04;;;;;;;45.97;18.65;;;3.10;99.90;;;1.88;100.00;97466.38;4915677;29;20480;-76
2023/03/05 03:37:30;;;;;;;58.40;22.27;;;3.10;99.90;;;1.83;100.00;97455.72;4915594;29;20415;-75
2023/03/05 03:39:56;;;;;;;53.42;20.55;;;3.10;99.90;;;1.84;100.00;97459.94;4912923;29;20542;-75
2023/03/05 03:42:23;;;;;;;64.78;24.08;;;3.00;99.90;;;1.82;100.00;97448.88;4929567;28;20500;-74
2023/03/05 03:44:50;;;;;;;62.33;23.13;;;3.00;99.90;;;1.81;100.00;97456.91;4913622;29;20946;-77
2023/03/05 03:47:17;;;;;;;54.08;22.10;;;3.00;99.90;;;1.78;100.00;97446.88;4914213;29;20428;-78
2023/03/05 03:49:43;;;;;;;49.42;20.30;;;3.00;99.90;;;1.80;100.00;97448.28;4915369;29;20428;-77
2023/03/05 03:52:09;;;;;;;48.95;19.42;;;3.00;99.90;;;1.81;100.00;97444.66;4915063;29;20750;-77
2023/03/05 03:54:36;;;;;;;56.92;22.42;;;3.00;99.90;;;1.78;100.00;97442.47;4912587;29;20828;-77
2023/03/05 03:57:02;;;;;;;55.88;22.55;;;3.00;99.90;;;1.78;100.00;97445.06;4915281;29;20416;-77
2023/03/05 03:59:28;;;;;;;45.92;20.35;;;3.00;99.90;;;1.78;100.00;97441.66;4915081;29;20922;-77
2023/03/05 04:01:54;;;;;;;53.42;21.83;;;2.90;99.90;;;1.74;100.00;97440.41;4913590;29;20417;-77
2023/03/05 04:04:21;;;;;;;57.45;23.52;;;2.90;99.90;;;1.72;100.00;97438.03;4915049;29;20907;-78
2023/03/05 04:06:47;;;;;;;56.00;22.13;;;2.90;99.90;;;1.75;100.00;97428.97;4914985;29;20465;-77
2023/03/05 04:09:13;;;;;;;50.65;20.58;;;2.90;99.90;;;1.78;100.00;97434.63;4915002;29;20452;-77
2023/03/05 04:11:39;;;;;;;62.15;23.27;;;3.00;99.90;;;1.72;100.00;97432.81;4914701;29;20492;-78
2023/03/05 04:14:05;;;;;;;53.03;22.43;;;3.00;99.90;;;1.70;100.00;97428.75;4914999;29;20428;-77
2023/03/05 04:16:31;;;;;;;55.75;22.27;;;2.90;99.90;;;1.72;100.00;97435.41;4915116;29;20410;-77
2023/03/05 04:18:57;;;;;;;51.27;20.93;;;2.90;99.90;;;1.77;100.00;97432.22;4914891;29;20839;-78
2023/03/05 04:21:24;;;;;;;52.05;21.75;;;3.00;99.90;;;1.75;100.00;97432.41;4914676;29;20417;-77
2023/03/05 04:23:50;;;;;;;46.25;19.60;;;3.00;99.90;;;1.79;100.00;97430.22;4914664;29;20417;-78
2023/03/05 04:26:16;;;;;;;55.83;22.50;;;3.00;99.90;;;1.80;100.00;97431.81;4914789;29;20791;-77
2023/03/05 04:28:42;;;;;;;51.93;22.77;;;3.00;99.90;;;1.86;100.00;97428.44;4914757;29;20517;-78
2023/03/05 04:31:08;;;;;;;46.33;20.40;;;3.10;99.90;;;1.83;100.00;97418.38;4914681;29;20970;-77
2023/03/05 04:33:33;;;;;;;53.88;21.83;;;3.10;99.90;;;1.82;100.00;97424.59;4914608;29;20421;-77
2023/03/05 04:35:59;;;;;;;51.93;22.03;;;3.00;99.90;;;1.77;100.00;97422.56;4914711;29;20421;-77
2023/03/05 04:38:27;;;;;;;43.47;19.73;;;3.00;99.90;;;1.80;100.00;97416.97;4914587;29;20409;-77
2023/03/05 04:40:53;;;;;;;53.20;22.38;;;3.00;99.90;;;1.84;100.00;97417.38;4914497;29;20823;-77
2023/03/05 04:43:18;;;;;;;52.17;21.35;;;3.00;99.90;;;1.83;100.00;97424.41;4918555;29;20518;-75
2023/03/05 04:45:44;;;;;;;49.87;20.63;;;3.00;99.90;;;1.83;100.00;97420.97;4914311;29;20549;-75
2023/03/05 04:48:11;;;;;;;51.05;21.48;;;3.10;99.90;;;1.81;100.00;97410.72;4915989;29;20461;-77
2023/03/05 04:50:37;;;;;;;44.83;20.87;;;3.00;99.90;;;1.82;100.00;97406.31;4914295;29;20420;-77
2023/03/05 04:53:04;;;;;;;50.07;22.67;;;3.00;99.90;;;1.78;100.00;97418.16;4915749;29;20868;-77
2023/03/05 04:55:31;;;;;;;44.03;20.50;;;3.00;99.90;;;1.81;100.00;97408.13;4914271;29;20417;-78
2023/03/05 04:57:57;;;;;;;50.03;21.40;;;3.00;99.90;;;1.84;100.00;97412.97;4914368;29;20404;-77
2023/03/05 05:00:23;;;;;;;47.55;21.70;;;3.00;99.90;;;1.82;100.00;97412.34;4914157;29;20517;-78
2023/03/05 05:02:50;;;;;;;52.20;21.30;;;3.00;99.90;;;1.82;100.00;97407.13;4913654;29;20476;-78
2023/03/05 05:05:19;;;;;;;51.33;21.55;;;3.10;99.90;;;1.86;100.00;97408.38;4913973;29;20480;-78
2023/03/05 05:07:46;;;;;;;58.80;24.83;;;3.10;99.90;;;1.90;100.00;97406.16;4913752;29;20440;-78
2023/03/05 05:10:12;;;;;;;54.65;23.33;;;3.10;99.90;;;1.90;100.00;97408.75;4914058;29;20422;-78
2023/03/05 05:12:40;;;;;;;57.15;24.08;;;3.10;99.90;;;1.96;100.00;97405.38;4915491;29;20421;-78
2023/03/05 05:15:08;;;;;;;48.92;24.13;;;3.10;99.90;;;1.86;100.00;97399.72;4913235;29;20788;-78
2023/03/05 05:17:34;;;;;;;49.83;23.48;;;3.10;99.90;;;1.85;100.00;97401.53;4928266;29;20535;-78
2023/03/05 05:20:05;;;;;;;50.15;23.42;;;3.00;99.90;;;1.92;100.00;97401.56;4913752;29;20441;-78
2023/03/05 05:22:31;;;;;;;54.17;24.17;;;3.10;99.90;;;1.88;100.00;97395.13;4913423;29;20913;-78
2023/03/05 05:24:57;;;;;;;46.90;21.90;;;3.10;99.90;;;1.86;100.00;97391.91;4913826;29;20469;-78
2023/03/05 05:27:23;;;;;;;49.95;22.80;;;3.10;99.90;;;1.84;100.00;97399.91;4913648;29;20441;-78
2023/03/05 05:29:51;;;;;;;51.17;23.87;;;3.10;99.90;;;1.83;100.00;97398.31;4913754;29;20419;-78
2023/03/05 05:32:18;;;;;;;55.67;24.55;;;3.00;99.90;;;1.81;100.00;97396.88;4910944;29;20929;-78
2023/03/05 05:34:44;;;;;;;51.85;24.05;;;3.00;99.90;;;1.82;100.00;97401.09;4928327;29;20780;-78
2023/03/05 05:37:10;;;;;;;60.10;26.23;;;3.00;99.90;;;1.78;100.00;97405.91;4913616;29;20413;-78
2023/03/05 05:39:36;;;;;;;54.22;25.35;;;3.00;99.90;;;1.74;100.00;97394.25;4911109;29;20432;-78
2023/03/05 05:42:03;;;;;;;56.97;25.55;;;2.90;99.90;;;1.73;100.00;97400.47;4927834;29;20851;-78
2023/03/05 05:44:28;;;;;;;61.00;26.95;;;3.00;99.90;;;1.81;100.00;97399.50;4913502;29;20416;-77
2023/03/05 05:46:56;;;;;;;53.80;25.27;;;3.00;99.90;;;1.79;100.00;97396.28;4913438;29;20461;-78
2023/03/05 05:49:22;;;;;;;46.20;23.13;;;3.00;99.90;;;1.79;100.00;97391.88;4913594;29;20490;-77
2023/03/05 05:51:47;;;;;;;54.73;25.67;;;3.00;99.90;;;1.79;100.00;97402.31;4913123;29;20919;-78
2023/03/05 05:54:14;;;;;;;55.47;26.35;;;3.00;99.90;;;1.76;100.00;97394.88;4912179;29;20413;-78
2023/03/05 05:56:40;;;;;;;50.40;23.80;;;3.00;99.90;;;1.77;100.00;97388.66;4913486;29;20409;-77
2023/03/05 05:59:06;;;;;;;48.30;22.92;;;3.00;99.90;;;1.77;100.00;97393.88;4913484;29;20424;-78
2023/03/05 06:01:34;;;;;;;52.47;25.25;;;3.00;99.90;;;1.77;100.00;97388.66;4913192;29;20899;-77
2023/03/05 06:04:01;;;;;;;52.33;23.67;;;3.00;99.90;;;1.78;100.00;97394.69;4914236;29;20416;-78
2023/03/05 06:06:27;;;;;;;54.28;25.63;;;3.00;99.90;;;1.77;100.00;97396.47;4916946;29;20426;-77
2023/03/05 06:08:54;;;;;;;58.13;26.50;;;3.00;99.90;;;1.80;100.00;97396.09;4917163;29;20420;-78
2023/03/05 06:11:21;;;;;;;48.70;24.35;;;3.00;99.90;;;1.80;100.00;97392.69;4916695;29;20906;-78
2023/03/05 06:13:48;;;;;;;59.58;28.38;;;3.00;99.90;;;1.78;100.00;97395.47;4931387;28;20873;-78
2023/03/05 06:16:16;;;;;;;56.67;28.00;;;3.00;99.90;;;1.78;100.00;97397.28;4916931;29;20499;-78
2023/03/05 06:18:42;;;;;;;56.25;26.55;;;3.00;99.90;;;1.79;100.00;97399.72;4916827;29;20929;-79
2023/03/05 06:21:13;;;;;;;58.15;28.58;;;3.00;99.90;;;1.80;100.00;97398.72;4916917;29;20510;-75
2023/03/05 06:23:39;;;;;;;58.20;27.88;;;3.00;99.90;;;1.81;100.00;97394.28;4914232;29;20416;-76
2023/03/05 06:26:09;;;;;;;59.97;28.02;;;3.00;99.90;;;1.85;100.00;97398.91;4916629;29;20492;-76
2023/03/05 06:28:35;;;;;;;61.17;29.17;;;3.00;99.90;;;1.81;100.00;97392.47;4931169;29;20783;-75
2023/03/05 06:31:03;;;;;;;52.77;26.60;;;3.00;99.90;;;1.83;100.00;97398.31;4916789;29;20479;-76
2023/03/05 06:33:31;;;;;;;59.53;27.75;;;3.00;99.90;;;1.83;100.00;97398.31;4916169;29;21195;-76
2023/03/05 06:35:57;;;;;;;54.38;26.15;;;3.00;99.90;;;1.85;100.00;97392.91;4917143;29;20423;-77
2023/03/05 06:38:25;;;;;;;58.30;27.13;;;3.00;99.90;;;1.86;100.00;97392.72;4917015;29;20507;-76
2023/03/05 06:40:51;;;;;;;52.28;25.42;;;3.10;99.90;;;1.87;100.00;97388.28;4916956;29;20511;-75
2023/03/05 06:43:17;;;;;;;53.45;26.73;;;3.10;99.90;;;1.89;100.00;97387.06;4916524;29;20416;-75
2023/03/05 06:45:43;;;;;;;64.00;30.08;;;3.10;99.90;;;1.89;100.00;97391.50;4917352;29;20444;-76
2023/03/05 06:48:10;;;;;;;59.55;29.02;;;3.10;99.90;;;1.90;100.00;97391.31;4917409;29;20445;-77
2023/03/05 06:50:36;;;;;;;61.23;30.33;;;3.10;99.90;;;1.88;100.00;97393.28;4922438;29;20519;-77
2023/03/05 06:53:03;;;;;;;62.20;30.23;;;3.10;99.90;;;1.89;100.00;97388.88;4908165;29;20467;-77
2023/03/05 06:55:38;;;;;;;62.50;29.77;;;3.10;99.90;;;1.91;100.00;97392.09;4910330;29;20630;-76
2023/03/05 06:58:05;;;;;;;60.35;29.33;;;3.10;99.90;;;1.94;100.00;97384.69;4908966;29;20450;-77
2023/03/05 07:00:31;;;;;;;67.57;31.85;;;3.20;99.90;;;1.97;100.00;97388.72;4903640;29;20504;-77
2023/03/05 07:02:57;;;;;;;55.80;28.50;;;3.10;99.90;;;1.99;100.00;97391.94;4915334;29;20424;-77
2023/03/05 07:05:23;;;;;;;58.92;28.10;;;3.20;99.90;;;2.02;100.00;97386.34;4912949;29;20437;-75
2023/03/05 07:07:58;;;;;;;56.08;27.38;;;3.20;99.90;;;2.02;100.00;97393.34;4918486;29;20439;-77
2023/03/05 07:10:24;;;;;;;59.33;29.15;;;3.20;99.90;;;2.01;100.00;97384.72;4919679;29;20989;-76
2023/03/05 07:12:51;;;;;;;53.42;27.10;;;3.20;99.90;;;2.03;100.00;97380.09;4918564;29;20549;-75
2023/03/05 07:15:17;;;;;;;51.35;25.92;;;3.20;99.90;;;2.05;100.00;97385.91;4919455;29;20772;-76
2023/03/05 07:17:43;;;;;;;63.00;28.85;;;3.20;99.90;;;2.06;100.00;97387.53;4916526;29;20409;-75
2023/03/05 07:20:10;;;;;;;58.83;28.83;;;3.20;99.90;;;2.06;100.00;97381.50;4918216;29;20506;-75
2023/03/05 07:22:37;;;;;;;58.60;28.98;;;3.30;99.90;;;2.13;100.00;97383.13;4934381;29;20423;-75
2023/03/05 07:25:04;;;;;;;48.83;26.77;;;3.30;99.90;;;2.15;100.00;97380.31;4935172;29;20407;-76
2023/03/05 07:27:33;;;;;;;49.08;26.05;;;3.30;99.90;;;2.15;100.00;97386.34;4930112;29;20434;-75
2023/03/05 07:30:00;;;;;;;45.55;24.85;;;3.30;99.90;;;2.16;100.00;97374.91;4921458;29;20456;-75
2023/03/05 07:32:26;;;;;;;57.28;28.13;;;3.40;99.90;;;2.20;100.00;97376.13;4917895;29;20451;-76
2023/03/05 07:34:52;;;;;;;53.88;26.17;;;3.40;99.90;;;2.20;100.00;97381.34;4913792;28;20450;-76
2023/03/05 07:37:18;;;;;;;52.28;25.50;;;3.40;99.90;;;2.20;100.00;97377.91;4925908;29;20414;-75
2023/03/05 07:39:44;;;;;;;53.05;26.60;;;3.40;99.90;;;2.25;100.00;97373.72;4919143;29;20582;-76
2023/03/05 07:42:10;;;;;;;52.22;26.83;;;3.40;99.90;;;2.26;100.00;97377.13;4917272;29;20413;-76
2023/03/05 07:44:37;;;;;;;62.80;29.25;;;3.50;99.90;;;2.28;100.00;97373.31;4916010;29;20433;-75
2023/03/05 07:47:05;;;;;;;54.40;26.35;;;3.50;99.90;;;2.32;100.00;97368.50;4920099;29;20554;-76
2023/03/05 07:49:31;;;;;;;64.03;29.70;;;3.50;99.90;;;2.30;100.00;97371.31;4924325;29;20574;-76
2023/03/05 07:51:57;;;;;;;53.73;26.63;;;3.50;99.90;;;2.36;100.00;97379.34;4920460;29;20419;-78
2023/03/05 07:54:23;;;;;;;47.13;24.58;;;3.50;99.90;;;2.38;100.00;97372.94;4919440;29;20788;-76
2023/03/05 07:56:49;;;;;;;53.33;25.75;;;3.60;99.90;;;2.41;100.00;97369.91;4919053;29;20427;-76
2023/03/05 07:59:15;;;;;;;49.23;24.20;;;3.60;99.90;;;2.43;100.00;97380.97;4915609;29;20433;-76
2023/03/05 08:01:41;;;;;;;50.53;25.55;;;3.60;99.90;;;2.46;100.00;97370.13;4916581;29;20917;-76
2023/03/05 08:04:09;;;;;;;50.03;25.43;;;3.60;99.90;;;2.49;100.00;97368.91;4912720;29;20411;-77
2023/03/05 08:06:39;;;;;;;48.33;24.58;;;3.70;99.90;;;2.51;100.00;97372.13;4923014;29;20450;-78
2023/03/05 08:09:05;;;;;;;53.10;26.00;;;3.70;99.90;;;2.56;100.00;97373.13;4933091;29;20435;-76
2023/03/05 08:11:31;;;;;;;47.88;24.10;;;3.70;99.90;;;2.57;100.00;97366.09;4934527;29;20407;-76
2023/03/05 08:13:58;;;;;;;61.60;28.55;;;3.70;99.90;;;2.58;100.00;97372.94;4934409;29;20909;-77
2023/03/05 08:16:25;;;;;;;57.55;26.92;;;3.80;99.90;;;2.61;100.00;97367.31;4920322;29;20421;-76
2023/03/05 08:18:55;;;;;;;58.65;27.42;;;3.70;99.90;;;2.64;100.00;97367.72;4916444;29;20411;-77
2023/03/05 08:21:28;;;;;;;53.50;26.48;;;3.80;99.90;;;2.71;100.00;97367.72;4925436;29;20404;-78
2023/03/05 08:23:54;;;;;;;50.05;25.38;;;3.80;99.90;;;2.67;100.00;97364.72;4939076;29;20467;-75
2023/03/05 08:26:23;;;;;;;48.95;25.65;;;3.80;99.90;;;2.70;100.00;97369.56;4928641;29;20434;-78
2023/03/05 08:28:50;;;;;;;44.83;24.40;;;3.90;99.90;;;2.73;100.00;97363.91;4920294;29;20440;-78
2023/03/05 08:31:20;;;;;;;53.38;26.92;;;3.90;99.90;;;2.77;100.00;97359.09;4920128;29;20448;-79
2023/03/05 08:33:46;;;;;;;48.97;25.08;;;3.90;99.90;;;2.81;100.00;97362.09;4910124;29;20424;-77
2023/03/05 08:36:13;;;;;;;51.58;26.65;;;4.00;99.90;;;2.85;100.00;97366.72;4917544;29;20417;-76
2023/03/05 08:38:40;;;;;;;46.75;24.95;;;4.00;99.90;;;2.90;100.00;97361.69;4916025;29;20401;-76
2023/03/05 08:41:06;;;;;;;46.70;25.67;;;4.00;99.90;;;2.92;100.00;97362.28;4912804;29;20450;-77
2023/03/05 08:43:33;;;;;;;47.15;24.70;;;4.00;99.90;;;2.93;100.00;97358.66;4933279;23;20445;-76
2023/03/05 08:46:00;;;;;;;53.70;26.33;;;4.10;99.90;;;2.97;100.00;97357.25;4922973;29;20403;-77
2023/03/05 08:48:27;;;;;;;46.67;25.42;;;4.10;99.90;;;3.01;100.00;97350.59;4918573;29;20529;-75
2023/03/05 08:50:53;;;;;;;47.67;24.65;;;4.10;99.90;;;3.03;100.00;97345.97;4914365;29;20452;-76
2023/03/05 08:53:19;;;;;;;49.50;25.50;;;4.20;99.90;;;3.10;100.00;97353.78;4915793;29;20409;-76
2023/03/05 08:55:54;;;;;;;47.40;26.20;;;4.20;99.90;;;3.18;100.00;97350.97;4914410;29;20429;-76
2023/03/05 08:58:20;;;;;;;46.35;25.83;;;4.30;99.90;;;3.15;100.00;97343.56;4913743;29;25118;-76
2023/03/05 09:00:46;;;;;;;49.30;26.08;;;4.30;99.90;;;3.14;100.00;97341.94;4902397;29;20944;-75
2023/03/05 09:03:12;;;;;;;43.22;24.45;;;4.30;99.90;;;3.23;100.00;97351.19;4894821;29;20411;-76
2023/03/05 09:05:38;;;;;;;42.83;23.05;;;4.40;99.90;;;3.27;100.00;97341.91;4894890;29;20983;-76
2023/03/05 09:08:03;;;;;;;42.07;22.37;;;4.40;99.90;;;3.31;100.00;97339.66;4892391;29;20536;-77
2023/03/05 09:10:29;;;;;;;42.53;23.00;;;4.40;99.90;;;3.38;100.00;97341.25;4894627;29;20427;-81
2023/03/05 09:12:57;;;;;;;43.00;23.25;;;4.50;99.90;;;3.40;100.00;97341.03;4898136;29;20427;-76
2023/03/05 09:15:23;;;;;;;41.83;22.40;;;4.50;99.90;;;3.45;100.00;97339.44;4894722;29;20515;-76
2023/03/05 09:17:49;;;;;;;43.85;23.17;;;4.60;99.90;;;3.53;100.00;97341.00;4899528;29;20421;-77
2023/03/05 09:20:16;;;;;;;48.75;24.95;;;4.60;99.90;;;3.56;100.00;97334.53;4895125;29;20773;-76
2023/03/05 09:22:42;;;;;;;43.67;23.00;;;4.70;99.90;;;3.60;100.00;97333.13;4896035;29;20429;-75
2023/03/05 09:25:10;;;;;;;45.08;23.23;;;4.70;99.90;;;3.64;100.00;97337.72;4894706;29;20423;-73
2023/03/05 09:27:37;;;;;;;40.38;21.92;;;4.70;99.90;;;3.68;100.00;97325.03;4892564;29;20494;-72
2023/03/05 09:30:07;;;;;;;40.25;21.27;;;4.80;99.90;;;3.73;100.00;97333.06;4893770;29;20467;-71
2023/03/05 09:32:33;;;;;;;48.25;24.05;;;4.80;99.90;;;3.74;100.00;97327.63;4892252;29;20418;-73
2023/03/05 09:34:59;;;;;;;48.87;24.83;;;4.80;99.90;;;3.80;100.00;97326.78;4893584;29;20435;-73
2023/03/05 09:37:25;;;;;;;49.38;23.85;;;4.90;99.90;;;3.82;100.00;97316.91;4892324;29;20507;-73
2023/03/05 09:39:51;;;;;;;42.55;22.73;;;4.90;99.90;;;3.88;100.00;97316.06;4892403;29;20457;-75
2023/03/05 09:42:53;;;;;;;44.83;22.43;;;5.00;99.90;;;3.93;100.00;97314.63;4896207;29;20427;-76
2023/03/05 09:45:27;;;;;;;44.67;22.65;;;5.00;99.90;;;3.93;100.00;97317.25;4893728;29;20937;-75
2023/03/05 09:48:05;;;;;;;43.40;24.10;;;5.10;99.90;;;3.92;100.00;97318.25;4898674;29;20439;-80
2023/03/05 09:50:40;;;;;;;44.97;24.73;;;5.00;99.90;;;3.90;100.00;97310.63;4915671;29;20431;-74
2023/03/05 09:53:28;;;;;;;49.38;27.90;;;5.00;99.90;;;3.91;100.00;97311.44;4896632;29;20414;-76
2023/03/05 09:55:57;;;;;;;42.72;23.85;;;5.00;99.90;;;3.93;100.00;97299.72;4899342;29;20465;-76
2023/03/05 09:58:34;;;;;;;41.08;24.05;;;5.00;99.90;;;4.05;100.00;97299.88;4898139;29;20415;-75
2023/03/05 10:01:07;;;;;;;45.03;25.98;;;5.10;99.90;;;4.10;100.00;97303.44;4900190;29;20406;-78
2023/03/05 10:03:52;;;;;;;48.38;24.63;;;5.20;99.90;;;4.17;100.00;97298.16;4901778;29;20407;-77
2023/03/05 10:06:23;;;;;;;45.60;24.02;;;5.30;99.90;;;4.23;100.00;97295.50;4899885;29;20825;-77
2023/03/05 10:08:56;;;;;;;48.83;24.88;;;5.30;99.90;;;4.26;100.00;97292.47;4900410;29;20493;-76
2023/03/05 10:11:40;;;;;;;37.65;21.70;;;5.40;99.90;;;4.29;100.00;97286.78;4899357;29;20422;-77
2023/03/05 10:14:12;;;;;;;41.15;22.23;;;5.40;99.90;;;4.32;100.00;97295.22;4901791;29;20418;-76